Urb San Jose Ind, Puerto Rico
Current Conditions -  °F | °C
As of 1:56 PM on Thursday 30 Oct 2014 (Local Time) from TJSJ Reporting Station
Scattered Clouds Scattered Clouds  
Wind Chill: 87°   Ceiling: Unl
Heat Index: 99°   Visibility: 10mi
Dew Point: 77°   Wind: 9mph
Humidity: 72%   Direction: 350°N
Pressure: 29.78"   Gusts: NA
Location:  18.3754°N, 66.0577°W
Report Text: TJSJ 301756Z 35008KT 10SM FEW034 SCT042 31/25 A2978 RMK AO2 SLP083 T03060250 10311 20278 58025
Loading
Personal Weather Stations






























Interactive Weather Map
Tropical Storm Tracking
New forecast layout! Learn more

10-Day Weather Forecast

Advertisements
Track Severe Weather on mobile